createdAt,value
2023-04-20T00:02:24.904Z,9.20
2023-04-20T00:07:18.853Z,5.28
2023-04-20T00:12:13.292Z,7.45
2023-04-20T00:17:06.823Z,8.02
2023-04-20T00:22:01.231Z,7.68
2023-04-20T00:26:55.576Z,6.75
2023-04-20T00:31:50.260Z,8.18
2023-04-20T00:36:43.069Z,12.25
2023-04-20T00:41:36.560Z,14.43
2023-04-20T00:46:29.921Z,10.90
2023-04-20T00:51:24.433Z,14.23
2023-04-20T00:56:17.561Z,10.57
2023-04-20T01:01:12.148Z,19.48
2023-04-20T01:06:06.293Z,14.45
2023-04-20T01:11:01.828Z,15.88
2023-04-20T01:15:55.421Z,14.80
2023-04-20T01:20:49.015Z,20.02
2023-04-20T01:25:43.161Z,12.73
2023-04-20T01:30:37.182Z,14.20
2023-04-20T01:35:30.516Z,13.05
2023-04-20T01:40:23.880Z,15.00
2023-04-20T01:45:17.682Z,13.07
2023-04-20T01:50:11.027Z,13.75
2023-04-20T01:55:04.398Z,15.45
2023-04-20T01:59:57.753Z,15.05
2023-04-20T02:04:51.337Z,13.30
2023-04-20T02:09:44.118Z,11.35
2023-04-20T02:14:36.485Z,17.25
2023-04-20T02:19:30.102Z,13.32
2023-04-20T02:24:23.523Z,18.40
2023-04-20T02:29:17.234Z,19.60
2023-04-20T02:34:10.908Z,17.92
2023-04-20T02:39:04.404Z,14.93
2023-04-20T02:44:00.342Z,17.65
2023-04-20T02:48:56.354Z,15.95
2023-04-20T02:53:51.469Z,16.15
2023-04-20T02:58:55.649Z,19.10
2023-04-20T03:04:01.976Z,21.75
2023-04-20T03:08:58.173Z,33.25
2023-04-20T03:14:12.045Z,20.77
2023-04-20T03:19:05.759Z,16.17
2023-04-20T03:24:00.386Z,19.98
2023-04-20T03:28:53.890Z,17.85
2023-04-20T03:33:51.057Z,15.18
2023-04-20T03:38:44.506Z,14.40
2023-04-20T03:43:38.720Z,16.50
2023-04-20T03:48:31.872Z,13.98
2023-04-20T03:53:25.562Z,12.85
2023-04-20T03:58:18.812Z,14.77
2023-04-20T04:03:24.498Z,15.18
2023-04-20T04:08:18.368Z,13.35
2023-04-20T04:13:11.794Z,13.05
2023-04-20T04:18:07.121Z,14.50
2023-04-20T04:23:01.908Z,11.55
2023-04-20T04:28:04.702Z,15.18
2023-04-20T04:33:00.359Z,14.02
2023-04-20T04:37:54.464Z,17.38
2023-04-20T04:42:48.721Z,12.35
2023-04-20T04:47:44.560Z,11.52
2023-04-20T04:52:37.805Z,12.48
2023-04-20T04:57:31.445Z,13.43
2023-04-20T05:02:25.099Z,12.30
2023-04-20T05:07:18.522Z,11.63
2023-04-20T05:12:12.204Z,17.38
2023-04-20T05:17:06.405Z,12.35
2023-04-20T05:22:01.168Z,13.00
2023-04-20T05:26:54.112Z,10.75
2023-04-20T05:31:46.951Z,13.20
2023-04-20T05:36:42.197Z,14.32
2023-04-20T05:41:34.761Z,12.43
2023-04-20T05:46:29.802Z,11.77
2023-04-20T05:51:26.334Z,13.57
2023-04-20T05:56:20.576Z,22.25
2023-04-20T06:01:14.616Z,12.07
2023-04-20T06:06:08.926Z,16.85
2023-04-20T06:11:02.365Z,18.85
2023-04-20T06:15:58.138Z,15.60
2023-04-20T06:20:52.605Z,12.90
2023-04-20T06:25:46.999Z,13.57
2023-04-20T06:30:40.138Z,17.55
2023-04-20T06:35:33.769Z,19.15
2023-04-20T06:40:30.491Z,19.83
2023-04-20T06:45:23.753Z,28.95
2023-04-20T06:50:17.234Z,23.00
2023-04-20T06:55:10.287Z,24.45
2023-04-20T07:00:05.413Z,31.58
2023-04-20T07:05:03.137Z,21.00
2023-04-20T07:09:57.038Z,24.80
2023-04-20T07:14:50.148Z,28.20
2023-04-20T07:19:43.506Z,23.33
2023-04-20T07:24:36.894Z,28.08
2023-04-20T07:29:30.984Z,20.48
2023-04-20T07:34:25.609Z,23.63
2023-04-20T07:39:19.307Z,25.33
2023-04-20T07:44:14.720Z,19.42
2023-04-20T07:49:08.637Z,21.17
2023-04-20T07:54:02.301Z,20.60
2023-04-20T07:58:56.865Z,22.10
2023-04-20T08:03:50.719Z,24.17
2023-04-20T08:08:44.111Z,23.40
2023-04-20T08:13:37.842Z,21.23
2023-04-20T08:18:32.367Z,21.08
2023-04-20T08:23:27.982Z,21.45
2023-04-20T08:28:32.956Z,22.98
2023-04-20T08:33:28.134Z,20.77
2023-04-20T08:38:32.885Z,20.30
2023-04-20T08:43:27.028Z,18.35
2023-04-20T08:48:21.532Z,16.30
2023-04-20T08:53:14.837Z,16.80
2023-04-20T08:58:08.899Z,18.42
2023-04-20T09:03:02.624Z,16.75
2023-04-20T09:07:57.551Z,14.60
2023-04-20T09:12:50.996Z,14.90
2023-04-20T09:17:45.458Z,15.20
2023-04-20T09:22:39.296Z,22.13
2023-04-20T09:27:32.670Z,17.15
2023-04-20T09:32:26.922Z,15.55
2023-04-20T09:37:19.359Z,14.98
2023-04-20T09:42:16.056Z,15.52
2023-04-20T09:47:09.794Z,14.68
2023-04-20T09:52:07.664Z,12.10
2023-04-20T09:57:02.144Z,13.38
2023-04-20T10:01:54.533Z,14.57
2023-04-20T10:06:55.363Z,14.23
2023-04-20T10:11:53.335Z,12.95
2023-04-20T10:17:01.496Z,10.00
2023-04-20T10:21:55.348Z,10.38
2023-04-20T10:26:49.708Z,9.95
2023-04-20T10:31:43.338Z,9.85
2023-04-20T10:36:37.567Z,9.10
2023-04-20T10:41:31.273Z,9.20
2023-04-20T10:46:26.434Z,9.07
2023-04-20T10:51:20.092Z,7.80
2023-04-20T10:56:12.713Z,8.82
2023-04-20T11:01:06.665Z,10.75
2023-04-20T11:06:19.972Z,10.85
2023-04-20T11:11:46.787Z,8.00
2023-04-20T11:16:51.364Z,8.93
2023-04-20T11:21:46.450Z,7.30
2023-04-20T11:26:44.897Z,7.38
2023-04-20T11:31:38.459Z,8.80
2023-04-20T11:36:32.109Z,7.80
2023-04-20T11:41:24.782Z,9.50
2023-04-20T11:46:18.718Z,6.72
2023-04-20T11:51:12.046Z,8.20
2023-04-20T11:56:06.630Z,8.32
2023-04-20T12:01:00.288Z,10.65
2023-04-20T12:05:54.976Z,8.77
2023-04-20T12:10:48.687Z,13.52
2023-04-20T12:15:42.475Z,7.13
2023-04-20T12:20:35.995Z,8.30
2023-04-20T12:25:29.743Z,7.65
2023-04-20T12:30:24.008Z,8.15
2023-04-20T12:35:18.404Z,8.68
2023-04-20T12:40:12.892Z,8.98
2023-04-20T12:45:07.777Z,10.27
2023-04-20T12:50:01.574Z,12.75
2023-04-20T12:54:55.684Z,11.85
2023-04-20T12:59:50.087Z,12.32
2023-04-20T13:04:43.690Z,11.88
2023-04-20T13:09:37.918Z,13.45
2023-04-20T13:14:31.671Z,10.88
2023-04-20T13:19:25.863Z,12.45
2023-04-20T13:24:19.408Z,18.17
2023-04-20T13:29:13.149Z,12.52
2023-04-20T13:34:06.654Z,12.27
2023-04-20T13:38:59.806Z,11.32
2023-04-20T13:43:53.787Z,12.30
2023-04-20T13:48:47.455Z,13.68
2023-04-20T13:53:40.376Z,12.50
2023-04-20T13:58:34.662Z,16.13
2023-04-20T14:03:28.204Z,13.52
2023-04-20T14:08:23.678Z,14.02
2023-04-20T14:13:16.314Z,12.50
2023-04-20T14:18:10.791Z,17.10
2023-04-20T14:23:03.476Z,9.65
2023-04-20T14:27:56.807Z,10.95
2023-04-20T14:33:00.491Z,11.00
2023-04-20T14:37:54.525Z,14.10
2023-04-20T14:42:49.185Z,7.18
2023-04-20T14:47:43.141Z,5.10
2023-04-20T14:52:35.692Z,5.00
2023-04-20T14:57:29.729Z,4.28
2023-04-20T15:02:23.421Z,3.20
2023-04-20T15:07:18.427Z,6.13
2023-04-20T15:12:12.385Z,5.10
2023-04-20T15:17:06.724Z,5.30
2023-04-20T15:22:00.321Z,8.10
2023-04-20T15:26:54.615Z,4.90
2023-04-20T15:31:48.437Z,10.93
2023-04-20T15:36:43.757Z,11.38
2023-04-20T15:41:37.477Z,6.40
2023-04-20T15:46:30.926Z,10.82
2023-04-20T15:51:25.771Z,9.32
2023-04-20T15:56:22.923Z,15.35
2023-04-20T16:01:17.349Z,6.63
2023-04-20T16:06:10.760Z,21.95
2023-04-20T16:11:03.582Z,10.07
2023-04-20T16:15:57.824Z,9.90
2023-04-20T16:20:51.664Z,9.43
2023-04-20T16:25:45.104Z,9.98
2023-04-20T16:30:38.821Z,5.10
2023-04-20T16:35:34.083Z,6.85
2023-04-20T16:40:28.570Z,8.10
2023-04-20T16:45:22.645Z,7.03
2023-04-20T16:50:20.239Z,6.05
2023-04-20T16:55:13.280Z,5.85
2023-04-20T17:00:11.305Z,7.50
2023-04-20T17:05:06.044Z,10.45
2023-04-20T17:09:59.609Z,7.55
2023-04-20T17:14:52.623Z,9.05
2023-04-20T17:19:46.549Z,11.23
2023-04-20T17:24:39.570Z,11.65
2023-04-20T17:29:36.959Z,17.60
2023-04-20T17:34:30.738Z,13.38
2023-04-20T17:39:25.791Z,16.65
2023-04-20T17:44:19.032Z,17.55
2023-04-20T17:49:12.091Z,15.45
2023-04-20T17:54:07.212Z,15.30
2023-04-20T17:59:01.046Z,13.75
2023-04-20T18:03:54.287Z,12.25
2023-04-20T18:08:48.285Z,12.93
2023-04-20T18:13:42.386Z,11.93
2023-04-20T18:18:35.967Z,11.57
2023-04-20T18:23:30.068Z,14.10
2023-04-20T18:28:23.973Z,12.50
2023-04-20T18:33:17.306Z,13.13
2023-04-20T18:38:11.263Z,14.18
2023-04-20T18:43:05.105Z,20.13
2023-04-20T18:47:59.530Z,13.13
2023-04-20T18:52:52.822Z,15.65
2023-04-20T18:57:46.480Z,13.52
2023-04-20T19:02:40.728Z,11.98
2023-04-20T19:07:34.177Z,13.80
2023-04-20T19:12:28.763Z,15.35
2023-04-20T19:17:22.899Z,12.90
2023-04-20T19:22:15.445Z,13.20
2023-04-20T19:27:09.588Z,12.98
2023-04-20T19:32:03.028Z,12.88
2023-04-20T19:36:57.250Z,14.20
2023-04-20T19:41:50.545Z,12.82
2023-04-20T19:46:44.072Z,13.77
2023-04-20T19:51:38.161Z,13.63
2023-04-20T19:56:32.146Z,14.20
2023-04-20T20:01:26.163Z,15.40
2023-04-20T20:06:19.475Z,19.00
2023-04-20T20:11:12.183Z,15.15
2023-04-20T20:16:06.169Z,15.80
2023-04-20T20:21:00.338Z,16.77
2023-04-20T20:25:54.212Z,15.48
2023-04-20T20:30:47.836Z,15.65
2023-04-20T20:35:42.157Z,15.35
2023-04-20T20:40:36.204Z,17.17
2023-04-20T20:45:29.392Z,14.65
2023-04-20T20:50:22.965Z,14.05
2023-04-20T20:55:18.116Z,13.82
2023-04-20T21:00:13.931Z,14.73
2023-04-20T21:05:08.064Z,16.13
2023-04-20T21:10:01.750Z,15.40
2023-04-20T21:14:55.187Z,14.52
2023-04-20T21:19:48.739Z,16.63
2023-04-20T21:24:42.340Z,16.27
2023-04-20T21:29:36.030Z,15.80
2023-04-20T21:34:29.458Z,17.05
2023-04-20T21:39:23.461Z,17.58
2023-04-20T21:44:17.537Z,16.25
2023-04-20T21:49:10.759Z,16.42
2023-04-20T21:54:05.209Z,17.10
2023-04-20T21:58:58.596Z,20.55
2023-04-20T22:03:52.159Z,18.75
2023-04-20T22:08:44.996Z,15.40
2023-04-20T22:13:38.973Z,17.20
2023-04-20T22:18:32.565Z,16.63
2023-04-20T22:23:26.208Z,15.52
2023-04-20T22:28:18.883Z,14.70
2023-04-20T22:33:12.431Z,17.90
2023-04-20T22:38:06.358Z,16.85
2023-04-20T22:42:59.641Z,16.00
2023-04-20T22:47:53.336Z,18.77
2023-04-20T22:52:47.493Z,19.00
2023-04-20T22:57:41.354Z,16.67
2023-04-20T23:02:34.780Z,17.13
2023-04-20T23:07:27.979Z,23.58
2023-04-20T23:12:21.369Z,20.58
2023-04-20T23:17:13.855Z,20.48
2023-04-20T23:22:09.085Z,19.73
2023-04-20T23:27:01.967Z,17.38
2023-04-20T23:31:55.134Z,19.58
2023-04-20T23:36:49.031Z,20.33
2023-04-20T23:41:47.285Z,17.73
2023-04-20T23:46:40.669Z,23.10
2023-04-20T23:51:33.541Z,22.17
2023-04-20T23:56:27.130Z,23.80
